createdAt,value
2023-01-21T00:02:24.592Z,15.80
2023-01-21T00:05:27.654Z,16.70
2023-01-21T00:08:30.554Z,15.80
2023-01-21T00:11:33.306Z,14.40
2023-01-21T00:14:36.203Z,14.30
2023-01-21T00:17:38.932Z,16.30
2023-01-21T00:20:41.778Z,16.70
2023-01-21T00:23:47.819Z,14.70
2023-01-21T00:26:51.145Z,14.30
2023-01-21T00:29:53.897Z,15.10
2023-01-21T00:32:58.185Z,15.10
2023-01-21T00:36:05.799Z,14.30
2023-01-21T00:39:17.412Z,13.90
2023-01-21T00:42:20.183Z,15.80
2023-01-21T00:45:23.012Z,14.80
2023-01-21T00:48:29.581Z,13.70
2023-01-21T00:51:32.377Z,13.80
2023-01-21T00:54:35.137Z,13.80
2023-01-21T00:57:37.915Z,15.40
2023-01-21T01:00:40.782Z,15.40
2023-01-21T01:03:43.897Z,15.30
2023-01-21T01:06:46.788Z,15.10
2023-01-21T01:09:49.605Z,15.30
2023-01-21T01:12:52.924Z,17.20
2023-01-21T01:15:57.928Z,16.10
2023-01-21T01:19:00.877Z,16.50
2023-01-21T01:22:06.149Z,16.80
2023-01-21T01:25:09.553Z,15.70
2023-01-21T01:28:12.324Z,15.20
2023-01-21T01:31:18.052Z,17.10
2023-01-21T01:34:20.909Z,15.20
2023-01-21T01:37:23.680Z,15.40
2023-01-21T01:40:26.580Z,16.10
2023-01-21T01:43:50.207Z,15.40
2023-01-21T01:47:05.605Z,15.60
2023-01-21T01:50:14.196Z,15.40
2023-01-21T01:53:19.503Z,15.30
2023-01-21T01:56:22.813Z,15.50
2023-01-21T01:59:26.477Z,15.30
2023-01-21T02:02:29.858Z,14.80
2023-01-21T02:05:37.446Z,15.30
2023-01-21T02:08:43.353Z,14.40
2023-01-21T02:11:46.339Z,14.20
2023-01-21T02:14:49.990Z,13.30
2023-01-21T02:18:01.865Z,14.50
2023-01-21T02:21:13.584Z,13.80
2023-01-21T02:24:46.048Z,14.20
2023-01-21T02:28:13.596Z,13.10
2023-01-21T02:32:08.429Z,14.20
2023-01-21T02:35:26.347Z,13.80
2023-01-21T02:38:46.529Z,13.80
2023-01-21T02:42:00.167Z,13.20
2023-01-21T02:45:11.365Z,13.00
2023-01-21T02:48:19.821Z,12.50
2023-01-21T02:51:24.202Z,11.80
2023-01-21T02:54:39.008Z,12.20
2023-01-21T02:57:51.384Z,12.80
2023-01-21T03:01:11.330Z,11.80
2023-01-21T03:04:27.990Z,12.60
2023-01-21T03:07:40.356Z,12.30
2023-01-21T03:10:55.915Z,12.70
2023-01-21T03:14:29.474Z,12.30
2023-01-21T03:17:41.662Z,11.20
2023-01-21T03:20:49.333Z,11.70
2023-01-21T03:23:54.670Z,12.60
2023-01-21T03:27:02.529Z,11.60
2023-01-21T03:30:17.315Z,11.70
2023-01-21T03:33:21.929Z,10.70
2023-01-21T03:36:58.420Z,12.00
2023-01-21T03:40:22.323Z,10.80
2023-01-21T03:43:27.740Z,12.00
2023-01-21T03:46:53.088Z,10.80
2023-01-21T03:50:03.875Z,11.70
2023-01-21T03:53:07.591Z,10.90
2023-01-21T03:56:10.390Z,11.50
2023-01-21T03:59:13.441Z,10.80
2023-01-21T04:02:20.425Z,10.30
2023-01-21T04:05:24.715Z,11.00
2023-01-21T04:08:27.588Z,10.80
2023-01-21T04:11:30.334Z,11.60
2023-01-21T04:14:34.613Z,9.30
2023-01-21T04:17:37.451Z,8.70
2023-01-21T04:20:40.204Z,9.60
2023-01-21T04:23:45.216Z,9.30
2023-01-21T04:26:48.048Z,9.50
2023-01-21T04:29:58.431Z,9.30
2023-01-21T04:33:01.262Z,9.10
2023-01-21T04:36:06.422Z,9.90
2023-01-21T04:39:11.420Z,8.50
2023-01-21T04:42:14.135Z,9.10
2023-01-21T04:45:16.950Z,8.10
2023-01-21T04:48:19.698Z,8.70
2023-01-21T04:51:22.741Z,8.90
2023-01-21T04:54:25.569Z,8.90
2023-01-21T04:57:28.378Z,8.70
2023-01-21T05:00:31.096Z,8.30
2023-01-21T05:03:33.934Z,8.70
2023-01-21T05:06:36.823Z,8.00
2023-01-21T05:09:39.556Z,8.20
2023-01-21T05:12:42.575Z,8.20
2023-01-21T05:15:45.323Z,7.80
2023-01-21T05:18:51.102Z,7.80
2023-01-21T05:21:53.951Z,7.70
2023-01-21T05:24:56.851Z,8.10
2023-01-21T05:27:59.607Z,8.20
2023-01-21T05:31:10.629Z,8.30
2023-01-21T05:34:13.475Z,7.90
2023-01-21T05:37:18.910Z,8.40
2023-01-21T05:40:22.339Z,7.00
2023-01-21T05:43:28.345Z,8.50
2023-01-21T05:46:31.134Z,8.30
2023-01-21T05:49:34.007Z,8.30
2023-01-21T05:52:37.155Z,7.60
2023-01-21T05:55:39.981Z,8.00
2023-01-21T05:58:42.754Z,8.00
2023-01-21T06:01:45.495Z,8.90
2023-01-21T06:04:48.395Z,7.30
2023-01-21T06:07:52.239Z,8.80
2023-01-21T06:10:56.408Z,8.20
2023-01-21T06:13:59.115Z,9.50
2023-01-21T06:17:01.848Z,10.40
2023-01-21T06:20:05.182Z,9.90
2023-01-21T06:23:08.002Z,9.80
2023-01-21T06:26:11.472Z,8.60
2023-01-21T06:29:14.241Z,9.30
2023-01-21T06:32:16.995Z,8.20
2023-01-21T06:35:20.111Z,8.90
2023-01-21T06:38:24.157Z,9.60
2023-01-21T06:41:27.235Z,9.70
2023-01-21T06:44:30.005Z,7.90
2023-01-21T06:47:35.349Z,8.70
2023-01-21T06:50:38.215Z,8.80
2023-01-21T06:53:40.950Z,8.10
2023-01-21T06:56:44.218Z,9.30
2023-01-21T06:59:46.941Z,8.30
2023-01-21T07:02:49.860Z,8.80
2023-01-21T07:05:52.842Z,9.30
2023-01-21T07:08:55.656Z,8.20
2023-01-21T07:11:58.755Z,9.10
2023-01-21T07:15:03.240Z,9.20
2023-01-21T07:18:06.170Z,9.00
2023-01-21T07:21:09.040Z,8.50
2023-01-21T07:24:12.066Z,7.30
2023-01-21T07:27:15.954Z,7.80
2023-01-21T07:30:20.614Z,6.90
2023-01-21T07:33:23.384Z,6.80
2023-01-21T07:36:26.864Z,7.50
2023-01-21T07:39:29.612Z,6.90
2023-01-21T07:42:33.162Z,6.60
2023-01-21T07:45:38.333Z,7.20
2023-01-21T07:48:41.083Z,7.00
2023-01-21T07:51:48.187Z,6.00
2023-01-21T07:54:50.902Z,6.90
2023-01-21T07:57:57.078Z,7.70
2023-01-21T08:00:59.804Z,5.90
2023-01-21T08:04:02.741Z,6.30
2023-01-21T08:07:12.819Z,6.20
2023-01-21T08:10:17.819Z,6.50
2023-01-21T08:13:21.004Z,6.10
2023-01-21T08:16:23.954Z,5.60
2023-01-21T08:19:27.535Z,6.40
2023-01-21T08:22:31.534Z,6.30
2023-01-21T08:25:34.291Z,6.80
2023-01-21T08:28:37.083Z,5.20
2023-01-21T08:31:40.007Z,5.30
2023-01-21T08:34:42.995Z,4.60
2023-01-21T08:37:45.846Z,4.60
2023-01-21T08:40:48.579Z,5.40
2023-01-21T08:43:52.340Z,5.20
2023-01-21T08:46:55.832Z,4.90
2023-01-21T08:49:58.551Z,6.20
2023-01-21T08:53:01.594Z,5.50
2023-01-21T08:56:05.339Z,5.50
2023-01-21T08:59:08.271Z,5.50
2023-01-21T09:02:12.083Z,5.60
2023-01-21T09:05:15.125Z,5.90
2023-01-21T09:08:18.681Z,5.90
2023-01-21T09:11:22.417Z,5.20
2023-01-21T09:14:26.735Z,5.40
2023-01-21T09:17:29.493Z,5.40
2023-01-21T09:20:32.269Z,5.40
2023-01-21T09:23:37.066Z,5.60
2023-01-21T09:26:46.195Z,4.60
2023-01-21T09:29:48.926Z,5.00
2023-01-21T09:32:51.710Z,6.00
2023-01-21T09:35:56.620Z,5.30
2023-01-21T09:39:00.410Z,5.60
2023-01-21T09:42:03.328Z,5.40
2023-01-21T09:45:06.791Z,4.30
2023-01-21T09:48:21.821Z,4.50
2023-01-21T09:51:42.444Z,5.30
2023-01-21T09:54:46.697Z,5.50
2023-01-21T09:58:10.836Z,4.80
2023-01-21T10:01:31.272Z,4.60
2023-01-21T10:04:48.213Z,4.60
2023-01-21T10:08:24.785Z,5.40
2023-01-21T10:11:27.542Z,4.90
2023-01-21T10:14:42.205Z,4.20
2023-01-21T10:18:12.974Z,4.30
2023-01-21T10:21:39.908Z,5.00
2023-01-21T10:24:50.030Z,4.30
2023-01-21T10:27:54.850Z,4.90
2023-01-21T10:31:08.150Z,4.60
2023-01-21T10:34:22.252Z,4.80
2023-01-21T10:37:48.588Z,4.40
2023-01-21T10:41:04.580Z,3.90
2023-01-21T10:44:27.038Z,4.10
2023-01-21T10:47:38.843Z,4.00
2023-01-21T10:50:59.785Z,3.70
2023-01-21T10:54:17.506Z,4.10
2023-01-21T10:57:30.054Z,4.30
2023-01-21T11:00:38.617Z,3.70
2023-01-21T11:03:49.348Z,3.80
2023-01-21T11:07:04.600Z,3.50
2023-01-21T11:10:08.592Z,3.70
2023-01-21T11:25:49.147Z,5.50
2023-01-21T11:29:17.642Z,6.20
2023-01-21T11:32:26.137Z,6.00
2023-01-21T11:35:28.869Z,5.00
2023-01-21T11:38:34.111Z,4.80
2023-01-21T11:41:40.061Z,4.50
2023-01-21T11:44:57.511Z,3.50
2023-01-21T11:48:01.361Z,3.50
2023-01-21T11:51:09.310Z,3.50
2023-01-21T11:54:18.158Z,4.50
2023-01-21T11:57:34.140Z,3.90
2023-01-21T12:00:36.883Z,3.30
2023-01-21T12:03:55.921Z,3.70
2023-01-21T12:20:30.304Z,3.70
2023-01-21T12:23:51.384Z,3.80
2023-01-21T12:27:13.141Z,4.10
2023-01-21T12:31:07.178Z,3.90
2023-01-21T12:34:15.504Z,3.50
2023-01-21T12:37:22.141Z,3.90
2023-01-21T12:40:36.275Z,3.40
2023-01-21T12:43:46.523Z,4.10
2023-01-21T12:46:54.413Z,4.30
2023-01-21T12:50:21.496Z,4.10
2023-01-21T12:53:40.031Z,4.40
2023-01-21T12:57:17.310Z,4.80
2023-01-21T13:00:34.404Z,4.60
2023-01-21T13:03:59.789Z,4.90
2023-01-21T13:07:14.822Z,4.70
2023-01-21T13:10:30.878Z,5.30
2023-01-21T13:13:44.176Z,5.30
2023-01-21T13:16:56.209Z,5.20
2023-01-21T13:19:59.354Z,5.80
2023-01-21T13:23:14.831Z,6.00
2023-01-21T13:26:18.063Z,5.90
2023-01-21T13:29:45.865Z,6.80
2023-01-21T13:36:02.922Z,6.30
2023-01-21T13:39:18.693Z,5.40
2023-01-21T13:42:40.509Z,6.00
2023-01-21T13:46:07.551Z,6.20
2023-01-21T13:49:54.486Z,6.90
2023-01-21T13:53:17.554Z,6.30
2023-01-21T13:56:26.217Z,6.10
2023-01-21T13:59:53.052Z,6.80
2023-01-21T14:03:25.030Z,6.40
2023-01-21T14:06:35.398Z,5.60
2023-01-21T14:09:44.884Z,6.00
2023-01-21T14:13:07.218Z,5.50
2023-01-21T14:16:39.519Z,5.30
2023-01-21T14:20:01.116Z,5.50
2023-01-21T14:23:33.078Z,5.40
2023-01-21T14:26:48.182Z,5.50
2023-01-21T14:30:04.495Z,5.60
2023-01-21T14:33:21.779Z,6.10
2023-01-21T14:40:11.499Z,5.90
2023-01-21T14:43:32.929Z,6.10
2023-01-21T14:46:35.764Z,6.20
2023-01-21T14:49:41.286Z,10.80
2023-01-21T14:52:46.222Z,7.30
2023-01-21T14:56:29.039Z,7.60
2023-01-21T14:59:32.142Z,7.50
2023-01-21T15:02:42.104Z,8.30
2023-01-21T15:05:50.778Z,7.60
2023-01-21T15:08:59.659Z,9.60
2023-01-21T15:12:07.813Z,8.50
2023-01-21T15:15:31.755Z,10.10
2023-01-21T15:18:37.890Z,13.80
2023-01-21T15:21:40.588Z,10.70
2023-01-21T15:25:07.207Z,10.60
2023-01-21T15:28:25.311Z,14.80
2023-01-21T15:31:28.224Z,11.60
2023-01-21T15:34:34.923Z,10.20
2023-01-21T15:37:41.183Z,12.10
2023-01-21T15:40:54.008Z,11.50
2023-01-21T15:44:08.261Z,11.20
2023-01-21T15:47:40.980Z,12.60
2023-01-21T15:51:18.047Z,12.60
2023-01-21T15:54:22.350Z,13.40
2023-01-21T15:58:10.317Z,13.50
2023-01-21T16:01:19.378Z,14.70
2023-01-21T16:04:48.780Z,13.20
2023-01-21T16:08:25.879Z,14.00
2023-01-21T16:11:33.945Z,15.00
2023-01-21T16:14:52.682Z,15.50
2023-01-21T16:17:58.771Z,15.50
2023-01-21T16:21:04.069Z,16.30
2023-01-21T16:24:17.180Z,17.00
2023-01-21T16:27:28.382Z,16.10
2023-01-21T16:30:32.005Z,15.80
2023-01-21T16:33:35.084Z,15.70
2023-01-21T16:36:40.041Z,15.80
2023-01-21T16:39:46.888Z,16.80
2023-01-21T16:46:15.576Z,16.40
2023-01-21T16:49:19.122Z,16.70
2023-01-21T16:52:26.164Z,15.70
2023-01-21T16:55:30.977Z,16.00
2023-01-21T16:58:35.156Z,16.40
2023-01-21T17:01:38.561Z,19.20
2023-01-21T17:04:41.355Z,18.60
2023-01-21T17:07:44.175Z,18.10
2023-01-21T17:11:10.384Z,18.30
2023-01-21T17:14:27.781Z,20.10
2023-01-21T17:20:43.849Z,20.40
2023-01-21T17:23:50.454Z,19.00
2023-01-21T17:27:11.471Z,18.70
2023-01-21T17:30:33.370Z,19.00
2023-01-21T17:33:36.282Z,23.60
2023-01-21T17:36:40.928Z,20.70
2023-01-21T17:39:49.556Z,18.30
2023-01-21T17:42:53.470Z,22.20
2023-01-21T17:45:58.124Z,21.20
2023-01-21T17:49:07.520Z,19.40
2023-01-21T17:52:20.298Z,20.40
2023-01-21T17:55:30.115Z,21.50
2023-01-21T17:58:45.937Z,20.00
2023-01-21T18:01:48.841Z,21.80
2023-01-21T18:04:56.413Z,23.30
2023-01-21T18:07:59.294Z,24.20
2023-01-21T18:11:02.071Z,20.80
2023-01-21T18:14:05.706Z,22.50
2023-01-21T18:17:17.677Z,21.30
2023-01-21T18:20:26.179Z,24.20
2023-01-21T18:23:30.083Z,22.50
2023-01-21T18:26:34.167Z,23.80
2023-01-21T18:29:37.014Z,24.80
2023-01-21T18:32:41.801Z,24.30
2023-01-21T18:35:47.970Z,26.00
2023-01-21T18:38:50.736Z,26.00
2023-01-21T18:41:55.554Z,25.80
2023-01-21T18:44:58.353Z,27.80
2023-01-21T18:48:01.210Z,25.30
2023-01-21T18:51:07.511Z,26.20
2023-01-21T18:54:13.048Z,26.80
2023-01-21T18:57:19.004Z,28.50
2023-01-21T19:00:22.792Z,28.90
2023-01-21T19:03:25.663Z,28.10
2023-01-21T19:06:28.611Z,26.30
2023-01-21T19:09:35.910Z,25.40
2023-01-21T19:12:39.875Z,27.10
2023-01-21T19:15:43.304Z,27.40
2023-01-21T19:18:46.344Z,28.20
2023-01-21T19:21:53.199Z,25.90
2023-01-21T19:24:56.364Z,25.50
2023-01-21T19:27:59.801Z,25.70
2023-01-21T19:31:02.773Z,24.40
2023-01-21T19:34:07.593Z,24.60
2023-01-21T19:37:15.915Z,26.50
2023-01-21T19:40:21.489Z,24.80
2023-01-21T19:43:24.750Z,28.20
2023-01-21T19:46:29.000Z,28.80
2023-01-21T19:49:31.878Z,26.80
2023-01-21T19:52:34.806Z,26.70
2023-01-21T19:55:39.225Z,21.70
2023-01-21T19:58:42.215Z,23.70
2023-01-21T20:01:45.933Z,23.70
2023-01-21T20:04:48.758Z,21.90
2023-01-21T20:07:52.548Z,24.40
2023-01-21T20:10:56.045Z,26.60
2023-01-21T20:13:58.788Z,25.20
2023-01-21T20:17:03.145Z,25.60
2023-01-21T20:20:24.651Z,26.70
2023-01-21T20:23:27.546Z,27.40
2023-01-21T20:26:30.360Z,28.40
2023-01-21T20:29:36.002Z,25.60
2023-01-21T20:32:40.442Z,30.60
2023-01-21T20:35:46.429Z,25.80
2023-01-21T20:38:49.967Z,28.50
2023-01-21T20:41:52.747Z,27.30
2023-01-21T20:44:55.766Z,29.70
2023-01-21T20:48:01.010Z,26.60
2023-01-21T20:51:04.403Z,27.00
2023-01-21T20:54:07.289Z,26.70
2023-01-21T20:57:13.607Z,28.40
2023-01-21T21:00:18.445Z,29.50
2023-01-21T21:03:21.256Z,27.20
2023-01-21T21:06:27.997Z,31.30
2023-01-21T21:09:36.184Z,29.90
2023-01-21T21:12:38.883Z,27.70
2023-01-21T21:15:45.046Z,28.60
2023-01-21T21:18:49.708Z,29.20
2023-01-21T21:21:52.488Z,29.30
2023-01-21T21:24:55.364Z,31.20
2023-01-21T21:27:58.120Z,29.00
2023-01-21T21:31:03.975Z,30.70
2023-01-21T21:34:06.994Z,32.60
2023-01-21T21:37:12.208Z,34.20
2023-01-21T21:40:15.345Z,33.60
2023-01-21T21:43:35.829Z,35.40
2023-01-21T21:46:57.912Z,34.70
2023-01-21T21:50:00.713Z,38.60
2023-01-21T21:53:06.218Z,33.70
2023-01-21T21:56:24.540Z,35.80
2023-01-21T21:59:27.313Z,33.70
2023-01-21T22:02:30.312Z,31.10
2023-01-21T22:05:35.643Z,33.90
2023-01-21T22:08:40.902Z,32.10
2023-01-21T22:11:43.627Z,32.70
2023-01-21T22:14:46.373Z,31.70
2023-01-21T22:17:50.585Z,34.70
2023-01-21T22:21:00.278Z,33.70
2023-01-21T22:24:06.773Z,33.60
2023-01-21T22:27:12.531Z,34.40
2023-01-21T22:30:15.691Z,35.60
2023-01-21T22:33:18.471Z,33.80
2023-01-21T22:36:24.289Z,36.90
2023-01-21T22:39:27.059Z,31.50
2023-01-21T22:42:32.498Z,32.20
2023-01-21T22:45:35.918Z,32.60
2023-01-21T22:48:39.248Z,41.60
2023-01-21T22:51:42.037Z,30.30
2023-01-21T22:54:47.234Z,29.20
2023-01-21T22:57:51.582Z,30.80
2023-01-21T23:00:55.520Z,30.90
2023-01-21T23:03:59.631Z,31.40
2023-01-21T23:07:02.371Z,31.80
2023-01-21T23:10:05.857Z,31.90
2023-01-21T23:13:09.829Z,32.00
2023-01-21T23:16:20.956Z,30.70
2023-01-21T23:19:24.002Z,30.00
2023-01-21T23:22:28.865Z,28.50
2023-01-21T23:25:31.689Z,27.40
2023-01-21T23:28:35.870Z,26.60
2023-01-21T23:31:38.690Z,24.50
2023-01-21T23:34:41.562Z,24.20
2023-01-21T23:37:44.431Z,25.30
2023-01-21T23:40:47.422Z,25.50
2023-01-21T23:43:52.542Z,24.70
2023-01-21T23:46:55.254Z,23.50
2023-01-21T23:49:58.082Z,24.40
2023-01-21T23:53:00.837Z,24.30
2023-01-21T23:56:13.587Z,24.70
2023-01-21T23:59:16.451Z,22.80
